Time;durP1;ratioP1;P1;durP2;ratioP2;P2;SDS_P1;SDS_P2;PMS_P1;PMS_P2;Temp;Humidity;BMP_temperature;BMP_pressure;BME280_temperature;BME280_humidity;BME280_pressure;Samples;Min_cycle;Max_cycle;Signal;HPM_P1;HPM_P2
2021/10/13 00:00:16;;;;;;;10.88;4.95;;;;;;;27.06;21.55;97783.34;5086607;28;20039;-80
2021/10/13 00:02:42;;;;;;;8.25;4.40;;;;;;;27.16;21.29;97787.00;5079279;28;20044;-80
2021/10/13 00:05:09;;;;;;;6.40;3.78;;;;;;;26.86;21.57;97797.00;5086594;28;20028;-80
2021/10/13 00:07:35;;;;;;;7.57;4.10;;;;;;;26.86;21.91;97787.78;5080310;28;20040;-80
2021/10/13 00:10:02;;;;;;;7.45;3.95;;;;;;;26.54;22.29;97788.91;5084814;28;20484;-80
2021/10/13 00:12:32;;;;;;;6.18;3.72;;;;;;;26.59;22.05;97793.97;5080848;28;20035;-80
2021/10/13 00:14:58;;;;;;;6.75;3.78;;;;;;;25.85;23.07;97788.13;5080110;28;20484;-79
2021/10/13 00:17:24;;;;;;;4.65;3.10;;;;;;;25.49;23.66;97799.72;5079857;28;20552;-79
2021/10/13 00:19:50;;;;;;;8.60;3.72;;;;;;;25.68;23.65;97787.47;5079498;28;20393;-79
2021/10/13 00:22:16;;;;;;;6.20;3.35;;;;;;;25.52;23.59;97790.41;5086316;28;20512;-79
2021/10/13 00:24:42;;;;;;;4.63;3.03;;;;;;;25.86;23.23;97789.66;5081035;28;20039;-79
2021/10/13 00:27:08;;;;;;;6.07;3.58;;;;;;;25.97;22.98;97787.31;5082839;28;20032;-79
2021/10/13 00:29:36;;;;;;;6.97;3.80;;;;;;;25.86;23.42;97789.66;5077718;28;20063;-79
2021/10/13 00:32:05;;;;;;;7.80;3.67;;;;;;;26.01;22.97;97794.38;5079116;28;20024;-79
2021/10/13 00:34:32;;;;;;;5.90;3.90;;;;;;;25.27;23.70;97782.75;5090791;28;20040;-79
2021/10/13 00:36:59;;;;;;;5.63;3.42;;;;;;;25.55;23.70;97795.13;5077707;28;20106;-78
2021/10/13 00:39:25;;;;;;;5.18;3.17;;;;;;;25.59;23.64;97786.56;5081654;28;20034;-79
2021/10/13 00:41:51;;;;;;;5.30;2.90;;;;;;;25.76;23.40;97794.44;5079987;28;20038;-79
2021/10/13 00:44:17;;;;;;;6.90;4.15;;;;;;;25.81;23.51;97798.69;5085000;28;20389;-79
2021/10/13 00:46:43;;;;;;;7.07;3.90;;;;;;;25.37;24.22;97795.66;5085728;28;20036;-79
2021/10/13 00:49:09;;;;;;;4.85;3.50;;;;;;;25.23;24.18;97789.69;5079484;28;20042;-80
2021/10/13 00:51:36;;;;;;;4.20;3.13;;;;;;;25.52;23.94;97801.66;5081963;28;20066;-79
2021/10/13 00:54:02;;;;;;;5.15;3.30;;;;;;;25.47;23.83;97798.59;5078792;28;20033;-78
2021/10/13 00:56:28;;;;;;;5.80;3.50;;;;;;;25.68;23.72;97797.91;5085677;28;20056;-79
2021/10/13 00:58:54;;;;;;;5.88;3.08;;;;;;;25.60;23.75;97799.41;5083690;28;20032;-79
2021/10/13 01:01:30;;;;;;;5.10;2.97;;;;;;;25.56;23.72;97790.28;5082738;28;20031;-78
2021/10/13 01:04:17;;;;;;;4.10;2.80;;;;;;;25.72;23.32;97785.31;5081342;28;20123;-78
2021/10/13 01:07:06;;;;;;;5.05;3.28;;;;;;;26.11;22.56;97786.84;5087608;28;20032;-79
2021/10/13 01:09:51;;;;;;;7.07;2.78;;;;;;;26.44;22.42;97790.09;5082289;28;20560;-79
2021/10/13 01:12:20;;;;;;;4.47;2.65;;;;;;;26.65;21.97;97792.91;5081781;28;20500;-79
2021/10/13 01:14:53;;;;;;;4.57;2.78;;;;;;;27.11;21.47;97802.47;5080293;28;20413;-79
2021/10/13 01:17:35;;;;;;;3.75;2.60;;;;;;;27.07;21.45;97801.81;5079015;28;20042;-80
2021/10/13 01:20:29;;;;;;;2.83;2.13;;;;;;;26.61;21.71;97800.72;5091739;28;20432;-79
2021/10/13 01:23:03;;;;;;;2.55;1.73;;;;;;;26.78;21.62;97800.53;5080708;28;20027;-78
2021/10/13 01:25:57;;;;;;;2.17;1.77;;;;;;;26.89;21.54;97804.53;5084773;28;20036;-78
2021/10/13 01:28:31;;;;;;;3.40;2.08;;;;;;;27.06;21.34;97805.88;5088441;28;20031;-79
2021/10/13 01:30:59;;;;;;;3.20;2.03;;;;;;;27.10;21.20;97809.34;5080732;28;20044;-79
2021/10/13 01:34:05;;;;;;;4.90;1.83;;;;;;;27.02;21.33;97810.09;5076342;28;20067;-79
2021/10/13 01:36:46;;;;;;;3.25;1.65;;;;;;;26.91;21.32;97809.72;5040023;28;20128;-79
2021/10/13 01:39:13;;;;;;;1.60;1.48;;;;;;;26.69;21.46;97809.69;5082787;28;20060;-79
2021/10/13 01:41:43;;;;;;;1.48;1.25;;;;;;;26.37;21.75;97807.25;5078293;28;20033;-79
2021/10/13 01:44:16;;;;;;;2.83;1.77;;;;;;;26.54;21.71;97809.41;5083557;28;20051;-79
2021/10/13 01:46:46;;;;;;;2.35;1.52;;;;;;;26.15;22.10;97804.38;5081147;28;20040;-79
2021/10/13 01:49:14;;;;;;;1.88;1.45;;;;;;;26.17;21.90;97809.53;5076375;28;20029;-79
2021/10/13 01:51:43;;;;;;;1.48;1.27;;;;;;;26.14;22.03;97804.84;5083456;28;20052;-79
2021/10/13 01:54:11;;;;;;;1.77;1.33;;;;;;;26.32;21.98;97808.63;5074121;28;20052;-79
2021/10/13 01:56:40;;;;;;;1.83;1.40;;;;;;;26.33;21.78;97810.16;5078614;28;20033;-79
2021/10/13 01:59:20;;;;;;;1.88;1.33;;;;;;;26.29;22.00;97812.34;5077071;28;20097;-79
2021/10/13 02:01:46;;;;;;;4.20;1.50;;;;;;;26.18;21.95;97813.94;5087079;28;20028;-79
2021/10/13 02:04:15;;;;;;;1.92;1.33;;;;;;;26.17;22.06;97815.19;5080381;28;20283;-79
2021/10/13 02:06:42;;;;;;;1.40;1.30;;;;;;;26.18;21.98;97813.94;5079860;28;20059;-79
2021/10/13 02:09:10;;;;;;;2.33;1.20;;;;;;;26.12;22.19;97818.56;5084348;28;20039;-79
2021/10/13 02:11:36;;;;;;;2.35;1.35;;;;;;;26.02;22.25;97823.31;5079476;28;20040;-79
2021/10/13 02:14:09;;;;;;;3.03;1.30;;;;;;;25.89;22.29;97823.31;5077012;28;20039;-79
2021/10/13 02:16:37;;;;;;;1.95;1.65;;;;;;;25.69;22.87;97822.78;5080705;28;20041;-79
2021/10/13 02:19:05;;;;;;;2.00;1.30;;;;;;;25.79;22.49;97832.88;5088781;28;20382;-79
2021/10/13 02:21:36;;;;;;;2.10;1.52;;;;;;;26.09;22.42;97837.91;5081700;28;20052;-79
2021/10/13 02:24:03;;;;;;;;;;;;;;;26.15;22.25;97837.34;5077541;28;20032;-79
2021/10/13 02:26:40;;;;;;;3.72;1.50;;;;;;;26.12;22.35;97839.06;5078536;28;19917;-79
2021/10/13 02:29:15;;;;;;;1.85;1.13;;;;;;;26.12;22.32;97839.06;5076911;28;20473;-79
2021/10/13 02:31:42;;;;;;;2.95;1.40;;;;;;;25.77;22.65;97848.63;5082607;28;20025;-79
2021/10/13 02:34:09;;;;;;;2.30;1.55;;;;;;;25.73;22.77;97845.16;5077603;28;20032;-79
2021/10/13 02:36:35;;;;;;;3.83;1.52;;;;;;;25.95;22.56;97841.19;5085327;28;20059;-79
2021/10/13 02:39:01;;;;;;;2.15;1.60;;;;;;;25.84;22.88;97848.41;5078157;28;20070;-79
2021/10/13 02:41:27;;;;;;;2.05;1.48;;;;;;;25.80;22.93;97856.19;5074574;28;20034;-79
2021/10/13 02:43:53;;;;;;;1.67;1.52;;;;;;;25.96;22.59;97859.66;5099676;28;20040;-79
2021/10/13 02:46:42;;;;;;;3.47;1.80;;;;;;;26.18;22.35;97858.97;5074405;28;20033;-79
2021/10/13 02:49:23;;;;;;;2.70;1.75;;;;;;;26.45;21.98;97870.50;5078645;28;20090;-80
2021/10/13 02:52:08;;;;;;;2.75;1.67;;;;;;;26.17;22.47;97866.63;5078187;28;20541;-79
2021/10/13 02:54:59;;;;;;;2.72;2.25;;;;;;;25.92;22.75;97858.19;5081974;28;20489;-79
2021/10/13 02:57:54;;;;;;;3.50;1.50;;;;;;;26.12;22.37;97875.63;5086160;28;20059;-79
2021/10/13 03:00:21;;;;;;;3.00;1.98;;;;;;;25.41;23.27;97872.22;5077811;28;20029;-79
2021/10/13 03:03:06;;;;;;;3.00;1.88;;;;;;;25.82;22.83;97877.00;5088467;28;20028;-79
2021/10/13 03:05:32;;;;;;;2.65;1.70;;;;;;;25.66;22.93;97882.75;5091182;28;20035;-79
2021/10/13 03:08:02;;;;;;;3.05;1.77;;;;;;;25.21;23.86;97880.06;5085017;28;20085;-79
2021/10/13 03:10:33;;;;;;;2.53;2.05;;;;;;;25.48;23.58;97878.91;5077755;28;20044;-79
2021/10/13 03:13:00;;;;;;;;;;;;;;;25.61;23.31;97882.50;5087215;28;20516;-79
2021/10/13 03:15:28;;;;;;;4.72;2.85;;;;;;;25.67;23.27;97884.28;5088768;28;19924;-79
2021/10/13 03:17:58;;;;;;;4.00;2.70;;;;;;;25.39;23.68;97891.56;5078908;28;20060;-79
2021/10/13 03:20:25;;;;;;;4.38;2.95;;;;;;;24.93;24.25;97888.53;5087523;28;20081;-79
2021/10/13 03:22:55;;;;;;;3.13;2.58;;;;;;;24.34;24.54;97900.91;5084620;28;20502;-79
2021/10/13 03:25:29;;;;;;;4.30;2.95;;;;;;;24.14;25.17;97905.84;5088121;28;20525;-79
2021/10/13 03:27:57;;;;;;;3.45;2.80;;;;;;;23.48;25.86;97903.38;5089155;28;20036;-79
2021/10/13 03:30:23;;;;;;;4.38;2.78;;;;;;;23.24;25.99;97910.28;5087283;28;20040;-79
2021/10/13 03:32:49;;;;;;;6.35;3.80;;;;;;;23.05;26.20;97913.88;5078879;28;20055;-79
2021/10/13 03:35:27;;;;;;;4.50;2.95;;;;;;;23.36;25.77;97912.47;5083384;28;20024;-79
2021/10/13 03:37:55;;;;;;;4.15;2.83;;;;;;;23.62;25.75;97919.09;5089510;28;20047;-79
2021/10/13 03:40:22;;;;;;;5.22;2.97;;;;;;;23.71;25.45;97920.06;5085290;28;20066;-78
2021/10/13 03:42:48;;;;;;;3.05;1.92;;;;;;;23.70;24.70;97920.50;5080616;28;20111;-79
2021/10/13 03:45:18;;;;;;;3.10;2.35;;;;;;;24.39;24.46;97917.22;5083825;28;20036;-79
2021/10/13 03:47:46;;;;;;;3.97;2.72;;;;;;;23.75;24.78;97914.38;5082252;28;20050;-79
2021/10/13 03:50:14;;;;;;;5.88;3.22;;;;;;;23.89;24.72;97923.25;5081596;28;20044;-79
2021/10/13 03:52:42;;;;;;;3.45;2.58;;;;;;;23.92;24.80;97932.81;5085769;28;20040;-79
2021/10/13 03:55:12;;;;;;;2.58;1.42;;;;;;;23.81;24.92;97932.25;5081475;28;20035;-79
2021/10/13 03:57:39;;;;;;;4.43;2.50;;;;;;;23.69;25.29;97939.31;5089221;28;20111;-78
2021/10/13 04:00:09;;;;;;;2.67;2.33;;;;;;;23.94;24.82;97938.78;5086962;28;20175;-78
2021/10/13 04:02:35;;;;;;;2.20;1.65;;;;;;;23.88;24.43;97940.50;5082234;28;20036;-79
2021/10/13 04:05:02;;;;;;;4.18;1.50;;;;;;;24.08;24.27;97948.88;5078278;28;20157;-79
2021/10/13 04:07:28;;;;;;;1.50;1.30;;;;;;;24.37;23.85;97944.94;5081011;28;20036;-78
2021/10/13 04:09:56;;;;;;;2.10;1.50;;;;;;;24.67;23.10;97941.75;5079537;28;20493;-78
2021/10/13 04:12:22;;;;;;;1.58;1.15;;;;;;;23.78;24.48;97944.34;5078724;28;20028;-79
2021/10/13 04:14:49;;;;;;;2.47;1.83;;;;;;;23.79;24.73;97952.31;5077162;28;20062;-79
2021/10/13 04:17:15;;;;;;;2.22;1.50;;;;;;;24.08;24.30;97951.69;5083184;28;20044;-79
2021/10/13 04:19:41;;;;;;;2.70;1.35;;;;;;;23.98;24.46;97954.28;5081473;28;20033;-79
2021/10/13 04:22:07;;;;;;;5.07;1.85;;;;;;;24.55;23.92;97958.53;5087784;28;20038;-79
2021/10/13 04:24:33;;;;;;;2.10;1.83;;;;;;;24.58;23.70;97960.44;5080673;28;20028;-78
2021/10/13 04:27:00;;;;;;;3.97;2.28;;;;;;;24.89;23.52;97958.84;5071272;28;20025;-78
2021/10/13 04:29:26;;;;;;;3.92;3.53;;;;;;;24.55;23.63;97952.91;5066977;28;20040;-78
2021/10/13 04:31:52;;;;;;;4.38;1.90;;;;;;;23.94;24.09;97961.97;5066695;28;20524;-78
2021/10/13 04:34:18;;;;;;;3.35;2.22;;;;;;;24.45;23.73;97966.00;5066683;28;20143;-78
2021/10/13 04:36:44;;;;;;;2.33;1.95;;;;;;;23.89;24.72;97962.50;5067317;28;20097;-78
2021/10/13 04:39:11;;;;;;;2.20;1.55;;;;;;;23.55;25.13;97958.50;5070266;28;22475;-78
2021/10/13 04:41:37;;;;;;;4.75;3.50;;;;;;;23.57;24.94;97968.03;5065689;28;20093;-78
2021/10/13 04:44:03;;;;;;;5.65;2.95;;;;;;;23.01;25.82;97969.94;5063971;28;20032;-78
2021/10/13 04:46:29;;;;;;;4.28;2.95;;;;;;;23.41;24.98;97970.78;5066095;28;20032;-78
2021/10/13 04:48:56;;;;;;;2.72;2.13;;;;;;;24.01;24.42;97966.66;5068804;28;20064;-78
2021/10/13 04:51:22;;;;;;;3.88;2.72;;;;;;;24.32;23.95;97967.16;5071099;28;20101;-78
2021/10/13 04:53:48;;;;;;;3.22;2.40;;;;;;;24.40;23.47;97968.53;5084467;28;20056;-78
2021/10/13 04:56:14;;;;;;;6.47;2.65;;;;;;;24.62;23.37;97975.97;5081292;28;20024;-78
2021/10/13 04:58:40;;;;;;;3.45;2.40;;;;;;;24.77;23.22;97973.63;5087184;28;20036;-78
2021/10/13 05:01:07;;;;;;;6.90;3.08;;;;;;;24.69;23.02;97977.81;5081687;28;20048;-78
2021/10/13 05:03:33;;;;;;;6.22;3.63;;;;;;;24.55;23.36;97987.38;5095537;28;20031;-78
2021/10/13 05:05:59;;;;;;;4.93;3.20;;;;;;;24.30;23.48;97995.63;5089265;28;20541;-78
2021/10/13 05:08:26;;;;;;;3.92;2.65;;;;;;;24.02;24.13;97994.25;5074829;28;20409;-78
2021/10/13 05:10:52;;;;;;;4.68;2.90;;;;;;;24.37;23.63;98003.06;5086391;28;20039;-78
2021/10/13 05:13:18;;;;;;;2.78;2.20;;;;;;;24.76;22.92;98008.56;5084226;28;20032;-79
2021/10/13 05:15:44;;;;;;;2.83;2.28;;;;;;;24.59;23.13;98012.56;5081480;28;20063;-78
2021/10/13 05:18:11;;;;;;;3.13;2.20;;;;;;;24.30;23.21;98012.47;5080291;28;20024;-78
2021/10/13 05:20:38;;;;;;;4.30;2.70;;;;;;;24.26;23.69;98027.81;5081213;28;20082;-78
2021/10/13 05:23:04;;;;;;;3.63;3.05;;;;;;;24.62;23.19;98023.69;5077774;28;20360;-78
2021/10/13 05:25:31;;;;;;;3.65;2.72;;;;;;;24.53;23.23;98029.13;5076988;28;20111;-79
2021/10/13 05:27:57;;;;;;;2.83;2.03;;;;;;;22.81;24.98;98033.53;5075176;28;20032;-78
2021/10/13 05:30:23;;;;;;;4.53;3.33;;;;;;;20.87;27.61;98035.28;5079366;28;20028;-79
2021/10/13 05:32:50;;;;;;;5.30;3.10;;;;;;;21.57;26.70;98037.34;5082550;28;20020;-80
2021/10/13 05:35:16;;;;;;;5.22;3.85;;;;;;;21.04;27.46;98037.94;5081044;28;20607;-79
2021/10/13 05:37:42;;;;;;;4.60;4.00;;;;;;;22.00;26.59;98049.56;5091384;28;20028;-79
2021/10/13 05:40:11;;;;;;;3.53;2.90;;;;;;;21.56;26.69;98048.94;5077691;28;20028;-79
2021/10/13 05:42:37;;;;;;;5.13;4.38;;;;;;;22.51;25.58;98061.59;5085296;28;20036;-79
2021/10/13 05:45:04;;;;;;;6.32;4.18;;;;;;;23.00;25.00;98062.78;5093388;28;20036;-79
2021/10/13 05:47:30;;;;;;;6.43;4.20;;;;;;;23.19;24.74;98071.25;5085819;28;20028;-79
2021/10/13 05:49:56;;;;;;;5.63;4.18;;;;;;;23.79;24.01;98072.09;5093316;28;20051;-79
2021/10/13 05:52:22;;;;;;;6.70;4.40;;;;;;;24.44;23.35;98070.25;5081605;28;20123;-79
2021/10/13 05:54:48;;;;;;;6.82;4.05;;;;;;;24.70;23.07;98072.03;5073302;28;20028;-79
2021/10/13 05:57:14;;;;;;;4.93;3.65;;;;;;;24.74;22.92;98081.16;5079669;28;20028;-79
2021/10/13 05:59:41;;;;;;;4.82;3.92;;;;;;;25.05;22.67;98084.44;5078083;28;20091;-79
2021/10/13 06:02:08;;;;;;;4.88;3.70;;;;;;;25.19;22.29;98087.66;5075447;28;20033;-79
2021/10/13 06:04:34;;;;;;;4.95;4.20;;;;;;;25.31;22.29;98092.56;5093280;28;20035;-79
2021/10/13 06:07:00;;;;;;;9.18;3.35;;;;;;;25.78;21.70;98097.72;5093378;28;20032;-79
2021/10/13 06:09:27;;;;;;;6.70;4.55;;;;;;;25.81;21.69;98096.84;5088703;28;20079;-79
2021/10/13 06:11:53;;;;;;;6.72;4.15;;;;;;;25.49;22.02;98100.53;5093478;28;20526;-79
2021/10/13 06:14:19;;;;;;;5.25;3.78;;;;;;;24.94;22.51;98112.81;5093386;28;20028;-79
2021/10/13 06:16:45;;;;;;;6.00;4.07;;;;;;;24.93;22.71;98119.63;5093409;28;20024;-79
2021/10/13 06:19:11;;;;;;;7.53;3.78;;;;;;;24.33;23.19;98118.22;5092903;28;20032;-79
2021/10/13 06:21:37;;;;;;;5.63;4.05;;;;;;;23.96;23.74;98113.00;5088408;28;20441;-79
2021/10/13 06:24:03;;;;;;;6.80;4.53;;;;;;;23.27;25.16;98116.69;5093283;28;20032;-79
2021/10/13 06:26:29;;;;;;;4.15;3.63;;;;;;;23.90;24.18;98118.31;5082276;28;20113;-79
2021/10/13 06:28:55;;;;;;;3.25;2.50;;;;;;;23.45;24.66;98127.63;5080693;28;20035;-79
2021/10/13 06:31:23;;;;;;;3.40;2.92;;;;;;;24.18;23.75;98125.34;5095137;28;20032;-79
2021/10/13 06:33:51;;;;;;;4.28;3.63;;;;;;;24.23;23.40;98129.66;5095318;28;20030;-79
2021/10/13 06:36:17;;;;;;;7.30;4.18;;;;;;;23.48;24.21;98138.75;5095771;28;20024;-79
2021/10/13 06:38:43;;;;;;;3.33;3.03;;;;;;;23.28;25.08;98137.91;5089180;28;20438;-79
2021/10/13 06:41:09;;;;;;;3.70;3.03;;;;;;;21.53;26.41;98147.53;5087769;28;20028;-79
2021/10/13 06:43:36;;;;;;;5.88;4.07;;;;;;;22.25;26.01;98152.69;5088513;28;20081;-79
2021/10/13 06:46:03;;;;;;;3.92;2.92;;;;;;;22.79;25.49;98153.53;5090840;28;20092;-79
2021/10/13 06:48:29;;;;;;;4.50;3.00;;;;;;;22.11;26.48;98161.25;5096829;28;20060;-79
2021/10/13 06:50:55;;;;;;;5.57;3.47;;;;;;;21.67;27.29;98172.53;5087885;28;20076;-79
2021/10/13 06:53:21;;;;;;;4.53;3.53;;;;;;;22.49;26.18;98159.94;5076944;28;20028;-79
2021/10/13 06:55:48;;;;;;;4.28;3.45;;;;;;;22.64;26.47;98164.16;5086753;28;20111;-79
2021/10/13 06:58:14;;;;;;;6.10;4.05;;;;;;;22.19;27.19;98165.56;5089612;28;20028;-79
2021/10/13 07:00:41;;;;;;;7.93;4.53;;;;;;;22.62;26.62;98168.56;5083196;28;20040;-79
2021/10/13 07:03:07;;;;;;;6.22;4.10;;;;;;;21.70;27.10;98180.91;5088116;28;20036;-79
2021/10/13 07:05:35;;;;;;;6.25;3.95;;;;;;;21.89;27.48;98185.09;5092777;28;20036;-79
2021/10/13 07:08:01;;;;;;;8.07;4.45;;;;;;;22.79;26.05;98175.13;5096368;28;20420;-79
2021/10/13 07:10:27;;;;;;;16.27;6.35;;;;;;;22.29;26.49;98184.19;5092910;28;20062;-79
2021/10/13 07:12:53;;;;;;;7.25;4.05;;;;;;;21.97;26.69;98183.81;5096294;28;20075;-79
2021/10/13 07:15:21;;;;;;;6.10;4.88;;;;;;;21.65;27.27;98189.72;5096679;28;20398;-79
2021/10/13 07:17:48;;;;;;;7.72;4.65;;;;;;;22.18;26.79;98180.75;5092415;28;20450;-79
2021/10/13 07:20:14;;;;;;;7.55;4.47;;;;;;;22.52;26.44;98184.28;5096515;28;20036;-79
2021/10/13 07:22:40;;;;;;;8.95;3.95;;;;;;;23.02;25.44;98178.75;5095895;28;20028;-79
2021/10/13 07:25:08;;;;;;;4.05;3.47;;;;;;;23.26;25.43;98185.19;5096249;28;20064;-79
2021/10/13 07:27:36;;;;;;;4.40;3.65;;;;;;;22.85;25.36;98185.41;5076343;28;20555;-79
2021/10/13 07:30:04;;;;;;;5.28;3.45;;;;;;;22.26;26.62;98193.44;5092452;28;20086;-79
2021/10/13 07:32:32;;;;;;;6.45;4.45;;;;;;;22.48;26.45;98202.31;5092766;28;20042;-79
2021/10/13 07:34:58;;;;;;;6.47;4.88;;;;;;;22.79;25.67;98203.13;5088718;28;20561;-79
2021/10/13 07:37:26;;;;;;;6.20;4.45;;;;;;;22.61;26.06;98209.75;5095629;28;20020;-79
2021/10/13 07:39:53;;;;;;;9.57;6.50;;;;;;;22.49;26.06;98204.72;5091956;28;20035;-79
2021/10/13 07:42:19;;;;;;;6.68;5.10;;;;;;;21.49;27.46;98219.41;5095684;28;20020;-79
2021/10/13 07:44:46;;;;;;;6.40;4.88;;;;;;;21.96;26.90;98218.56;5083730;28;20039;-79
2021/10/13 07:47:12;;;;;;;8.07;5.95;;;;;;;22.51;25.99;98207.09;5076067;28;20032;-79
2021/10/13 07:49:39;;;;;;;5.47;4.50;;;;;;;22.49;26.81;98209.53;5086711;28;20104;-79
2021/10/13 07:52:06;;;;;;;10.65;6.38;;;;;;;24.06;25.43;98201.78;5080297;28;20139;-79
2021/10/13 07:54:32;;;;;;;6.03;4.70;;;;;;;24.17;25.09;98212.78;5080115;28;20040;-79
2021/10/13 07:56:58;;;;;;;7.53;4.03;;;;;;;23.60;24.89;98202.59;5078452;28;20032;-79
2021/10/13 07:59:24;;;;;;;5.10;4.47;;;;;;;23.75;24.83;98215.16;5078670;28;20076;-79
2021/10/13 08:01:50;;;;;;;5.10;4.22;;;;;;;23.43;24.84;98209.34;5088830;28;20546;-79
2021/10/13 08:04:16;;;;;;;5.90;4.20;;;;;;;22.99;25.49;98215.22;5091659;28;20024;-79
2021/10/13 08:06:44;;;;;;;4.88;3.85;;;;;;;23.62;24.83;98210.59;5077187;28;20505;-79
2021/10/13 08:09:11;;;;;;;4.28;3.60;;;;;;;23.39;24.78;98219.78;5082086;28;20028;-79
2021/10/13 08:11:38;;;;;;;4.93;3.83;;;;;;;23.65;24.06;98218.13;5095717;28;20059;-79
2021/10/13 08:14:04;;;;;;;7.47;3.17;;;;;;;23.79;24.52;98217.88;5094124;28;20039;-79
2021/10/13 08:16:30;;;;;;;5.78;4.10;;;;;;;23.98;23.80;98223.53;5095064;28;20418;-79
2021/10/13 08:18:56;;;;;;;5.70;2.78;;;;;;;24.20;23.62;98218.28;5091181;28;20048;-79
2021/10/13 08:21:22;;;;;;;5.40;3.72;;;;;;;24.39;23.84;98223.13;5075139;28;20044;-79
2021/10/13 08:23:48;;;;;;;5.15;3.55;;;;;;;24.97;22.98;98210.22;5076406;28;20048;-79
2021/10/13 08:26:15;;;;;;;6.05;3.88;;;;;;;24.27;23.26;98208.97;5078389;28;20077;-79
2021/10/13 08:28:42;;;;;;;5.07;3.85;;;;;;;24.50;23.53;98208.88;5091038;28;20088;-79
2021/10/13 08:31:09;;;;;;;3.53;2.97;;;;;;;24.14;24.24;98211.63;5092511;28;20103;-79
2021/10/13 08:33:35;;;;;;;4.40;3.70;;;;;;;24.01;24.01;98214.22;5091091;28;20031;-79
2021/10/13 08:36:01;;;;;;;6.50;3.15;;;;;;;24.36;24.48;98218.41;5088035;28;20030;-79
2021/10/13 08:38:27;;;;;;;4.50;3.45;;;;;;;24.74;24.52;98201.91;5094850;28;20115;-80
2021/10/13 08:40:54;;;;;;;4.78;3.85;;;;;;;24.53;25.09;98213.59;5085408;28;20039;-79
2021/10/13 08:43:20;;;;;;;4.95;3.28;;;;;;;25.74;23.06;98209.56;5078378;28;20189;-79
2021/10/13 08:45:46;;;;;;;4.60;4.20;;;;;;;25.02;23.15;98201.28;5090078;28;20039;-79
2021/10/13 08:48:12;;;;;;;4.15;3.72;;;;;;;24.53;23.85;98210.78;5093152;28;20033;-79
2021/10/13 08:50:39;;;;;;;4.22;3.60;;;;;;;25.46;22.86;98219.50;5091821;28;20101;-79
2021/10/13 08:53:10;;;;;;;3.80;3.33;;;;;;;23.46;25.01;98214.06;5073631;28;20048;-79
2021/10/13 08:55:39;;;;;;;3.20;2.67;;;;;;;22.68;25.73;98220.09;5090417;28;20120;-79
2021/10/13 08:58:09;;;;;;;6.10;2.70;;;;;;;23.25;25.67;98220.00;5084969;28;20033;-79
2021/10/13 09:00:35;;;;;;;2.70;2.50;;;;;;;23.79;24.46;98218.69;5076319;28;20056;-79
2021/10/13 09:03:01;;;;;;;2.53;2.17;;;;;;;23.40;24.57;98223.38;5074265;28;20496;-79
2021/10/13 09:05:27;;;;;;;2.92;2.67;;;;;;;23.98;24.09;98223.53;5073124;28;20056;-80
2021/10/13 09:07:56;;;;;;;3.63;2.63;;;;;;;23.65;24.42;98232.94;5079621;28;20508;-79
2021/10/13 09:10:32;;;;;;;3.80;2.65;;;;;;;23.43;24.50;98234.56;5086486;28;20061;-79
2021/10/13 09:13:03;;;;;;;3.33;2.97;;;;;;;23.58;24.25;98247.09;5082811;28;20102;-79
2021/10/13 09:15:31;;;;;;;4.50;2.40;;;;;;;24.29;23.77;98245.81;5082988;28;20486;-80
2021/10/13 09:18:03;;;;;;;5.10;3.17;;;;;;;24.03;23.79;98247.47;5094053;28;20072;-80
2021/10/13 09:20:35;;;;;;;6.40;3.95;;;;;;;23.87;23.69;98241.78;5094780;28;20040;-79
2021/10/13 09:23:26;;;;;;;4.47;3.42;;;;;;;24.38;23.34;98246.00;5081342;28;20046;-79
2021/10/13 09:26:10;;;;;;;4.13;3.25;;;;;;;24.45;23.23;98248.69;5076703;28;20041;-79
2021/10/13 09:28:37;;;;;;;4.53;2.97;;;;;;;25.20;22.47;98251.44;5078973;28;20035;-79
2021/10/13 09:31:15;;;;;;;4.78;3.00;;;;;;;25.20;22.37;98262.69;5091434;28;20078;-79
2021/10/13 09:34:03;;;;;;;6.18;3.50;;;;;;;25.63;21.78;98263.25;5086263;28;20412;-79
2021/10/13 09:36:43;;;;;;;7.75;3.80;;;;;;;25.38;22.12;98258.22;5081839;28;20048;-79
2021/10/13 09:39:13;;;;;;;5.55;4.10;;;;;;;25.59;22.50;98262.56;5088761;28;20024;-80
2021/10/13 09:41:58;;;;;;;8.38;3.55;;;;;;;26.37;22.17;98252.81;5093824;28;20024;-80
2021/10/13 09:44:24;;;;;;;5.82;3.92;;;;;;;26.43;21.88;98267.16;5094001;28;20370;-80
2021/10/13 09:46:55;;;;;;;3.72;2.90;;;;;;;26.79;21.92;98262.09;5092689;28;20021;-80
2021/10/13 09:49:43;;;;;;;6.80;4.35;;;;;;;26.62;21.53;98264.19;5085957;28;20039;-80
2021/10/13 09:52:11;;;;;;;3.40;2.97;;;;;;;26.21;22.44;98269.00;5081858;28;20052;-79
2021/10/13 09:54:38;;;;;;;3.85;2.53;;;;;;;24.10;24.11;98274.63;5085255;28;20397;-79
2021/10/13 09:57:40;;;;;;;5.55;3.70;;;;;;;23.78;24.88;98278.78;5093650;28;20028;-79
2021/10/13 10:00:12;;;;;;;5.32;3.47;;;;;;;24.11;25.10;98274.19;5066901;28;20107;-79
2021/10/13 10:02:48;;;;;;;7.15;4.85;;;;;;;24.13;25.10;98266.16;5073435;28;20029;-79
2021/10/13 10:05:18;;;;;;;7.00;4.63;;;;;;;23.90;26.06;98269.75;5073454;28;20417;-79
2021/10/13 10:08:00;;;;;;;7.10;4.95;;;;;;;23.66;25.26;98282.22;5085425;28;20032;-79
2021/10/13 10:10:26;;;;;;;4.32;3.60;;;;;;;22.32;25.83;98289.66;5079550;28;20509;-78
2021/10/13 10:12:59;;;;;;;5.38;4.25;;;;;;;22.59;26.13;98284.16;5073549;28;20104;-79
2021/10/13 10:15:38;;;;;;;5.20;4.10;;;;;;;23.01;25.63;98280.00;5073164;28;20036;-80
2021/10/13 10:18:34;;;;;;;4.85;3.83;;;;;;;23.84;25.36;98284.69;5073481;28;20032;-79
2021/10/13 10:21:22;;;;;;;5.05;4.15;;;;;;;24.02;25.03;98280.34;5074465;28;20102;-80
2021/10/13 10:23:56;;;;;;;4.50;3.50;;;;;;;24.02;24.34;98274.72;5089264;28;20074;-80
2021/10/13 10:26:25;;;;;;;3.97;3.05;;;;;;;23.66;25.15;98282.22;5092252;28;20086;-79
2021/10/13 10:28:54;;;;;;;5.85;3.95;;;;;;;22.67;26.38;98274.47;5092592;28;20031;-80
2021/10/13 10:31:29;;;;;;;5.07;4.28;;;;;;;22.85;26.07;98271.44;5090476;28;20431;-80
2021/10/13 10:34:08;;;;;;;3.72;3.10;;;;;;;22.86;25.88;98271.00;5090660;28;20047;-80
2021/10/13 10:36:34;;;;;;;3.92;3.53;;;;;;;22.63;26.39;98280.13;5091426;28;20029;-79
2021/10/13 10:39:01;;;;;;;5.20;4.68;;;;;;;23.16;26.65;98275.75;5090734;28;20111;-79
2021/10/13 10:41:53;;;;;;;8.18;4.90;;;;;;;24.26;25.85;98281.13;5084884;28;20085;-79
2021/10/13 10:44:32;;;;;;;5.25;4.35;;;;;;;24.39;25.28;98275.66;5086213;28;20107;-79
2021/10/13 10:47:04;;;;;;;5.53;4.50;;;;;;;24.25;25.80;98271.13;5089153;28;20020;-79
2021/10/13 10:49:45;;;;;;;6.15;3.83;;;;;;;22.98;27.55;98278.03;5087796;28;20545;-80
2021/10/13 10:52:22;;;;;;;5.72;4.72;;;;;;;23.61;27.62;98282.69;5072659;28;20047;-79
2021/10/13 10:54:58;;;;;;;5.57;4.82;;;;;;;23.71;26.93;98284.50;5073659;28;20033;-79
2021/10/13 10:57:49;;;;;;;5.07;4.10;;;;;;;24.83;25.60;98277.97;5078153;28;20032;-79
2021/10/13 11:00:24;;;;;;;5.78;4.55;;;;;;;25.56;24.44;98280.28;5071834;28;20044;-80
2021/10/13 11:02:50;;;;;;;5.72;4.80;;;;;;;25.24;24.31;98285.88;5072620;28;20390;-80
2021/10/13 11:05:22;;;;;;;4.68;3.90;;;;;;;25.46;24.08;98283.38;5072657;28;20501;-79
2021/10/13 11:07:48;;;;;;;6.93;5.43;;;;;;;25.04;24.37;98287.94;5072674;28;20036;-80
2021/10/13 11:10:15;;;;;;;9.82;5.57;;;;;;;24.39;25.14;98289.69;5072443;28;20119;-79
2021/10/13 11:12:50;;;;;;;6.65;4.80;;;;;;;23.94;26.31;98294.94;5071367;28;20025;-79
2021/10/13 11:15:18;;;;;;;6.32;5.43;;;;;;;23.79;26.29;98297.19;5080589;28;20066;-79
2021/10/13 11:17:45;;;;;;;5.53;4.53;;;;;;;23.95;26.27;98299.31;5080198;28;20142;-79
2021/10/13 11:20:13;;;;;;;7.65;6.10;;;;;;;23.74;26.26;98285.66;5076249;28;20052;-80
2021/10/13 11:22:40;;;;;;;6.57;5.65;;;;;;;24.36;25.75;98288.56;5076313;28;20037;-79
2021/10/13 11:25:18;;;;;;;8.52;6.35;;;;;;;24.57;26.16;98285.31;5076014;28;20043;-79
2021/10/13 11:28:03;;;;;;;9.52;7.63;;;;;;;25.16;25.06;98276.00;5076024;28;20039;-79
2021/10/13 11:30:35;;;;;;;7.35;5.53;;;;;;;25.94;25.17;98281.34;5076728;28;20029;-79
2021/10/13 11:33:05;;;;;;;5.22;4.20;;;;;;;25.53;24.49;98278.38;5089833;28;20491;-79
2021/10/13 11:35:32;;;;;;;10.20;6.80;;;;;;;25.15;24.77;98271.63;5096191;28;20085;-79
2021/10/13 11:37:58;;;;;;;8.07;6.00;;;;;;;25.16;24.28;98264.75;5096165;28;20055;-80
2021/10/13 11:40:26;;;;;;;6.57;4.78;;;;;;;25.04;24.74;98271.84;5096294;28;20551;-79
2021/10/13 11:42:59;;;;;;;6.10;4.93;;;;;;;24.76;24.33;98266.91;5096111;28;20040;-79
2021/10/13 11:45:25;;;;;;;5.15;4.55;;;;;;;25.25;24.62;98271.38;5077634;28;20024;-79